sensor_id;sensor_type;location;lat;lon;timestamp;P1;durP1;ratioP1;P2;durP2;ratioP2
20014;SDS011;61787;42.022;23.078;2023-02-28T00:00:36;7.57;;;2.10;;
20014;SDS011;61787;42.022;23.078;2023-02-28T00:01:38;7.03;;;2.47;;
20014;SDS011;61787;42.022;23.078;2023-02-28T00:02:41;10.37;;;2.73;;
20014;SDS011;61787;42.022;23.078;2023-02-28T00:03:43;11.37;;;2.50;;
20014;SDS011;61787;42.022;23.078;2023-02-28T00:04:45;8.83;;;2.40;;
20014;SDS011;61787;42.022;23.078;2023-02-28T00:05:54;12.67;;;2.67;;
20014;SDS011;61787;42.022;23.078;2023-02-28T00:06:55;8.33;;;2.40;;
20014;SDS011;61787;42.022;23.078;2023-02-28T00:07:57;10.07;;;2.80;;
20014;SDS011;61787;42.022;23.078;2023-02-28T00:08:58;7.63;;;2.73;;
20014;SDS011;61787;42.022;23.078;2023-02-28T00:10:00;9.73;;;2.73;;
20014;SDS011;61787;42.022;23.078;2023-02-28T00:11:05;6.03;;;2.90;;
20014;SDS011;61787;42.022;23.078;2023-02-28T00:12:08;10.50;;;3.47;;
20014;SDS011;61787;42.022;23.078;2023-02-28T00:13:11;8.07;;;3.10;;
20014;SDS011;61787;42.022;23.078;2023-02-28T00:14:13;7.03;;;2.90;;
20014;SDS011;61787;42.022;23.078;2023-02-28T00:15:14;7.03;;;3.30;;
20014;SDS011;61787;42.022;23.078;2023-02-28T00:16:18;8.97;;;3.43;;
20014;SDS011;61787;42.022;23.078;2023-02-28T00:17:22;9.27;;;4.40;;
20014;SDS011;61787;42.022;23.078;2023-02-28T00:18:24;9.13;;;4.10;;
20014;SDS011;61787;42.022;23.078;2023-02-28T00:19:26;8.27;;;4.60;;
20014;SDS011;61787;42.022;23.078;2023-02-28T00:20:27;10.13;;;4.40;;
20014;SDS011;61787;42.022;23.078;2023-02-28T00:21:29;8.13;;;4.77;;
20014;SDS011;61787;42.022;23.078;2023-02-28T00:22:31;9.77;;;5.00;;
20014;SDS011;61787;42.022;23.078;2023-02-28T00:23:33;11.17;;;5.70;;
20014;SDS011;61787;42.022;23.078;2023-02-28T00:24:35;12.23;;;5.57;;
20014;SDS011;61787;42.022;23.078;2023-02-28T00:25:36;10.63;;;5.77;;
20014;SDS011;61787;42.022;23.078;2023-02-28T00:26:38;11.13;;;4.90;;
20014;SDS011;61787;42.022;23.078;2023-02-28T00:27:40;10.93;;;5.27;;
20014;SDS011;61787;42.022;23.078;2023-02-28T00:28:41;11.10;;;5.70;;
20014;SDS011;61787;42.022;23.078;2023-02-28T00:29:43;7.37;;;4.97;;
20014;SDS011;61787;42.022;23.078;2023-02-28T00:30:44;11.27;;;5.20;;
20014;SDS011;61787;42.022;23.078;2023-02-28T00:31:46;9.47;;;4.93;;
20014;SDS011;61787;42.022;23.078;2023-02-28T00:32:48;9.83;;;5.50;;
20014;SDS011;61787;42.022;23.078;2023-02-28T00:33:51;12.27;;;6.10;;
20014;SDS011;61787;42.022;23.078;2023-02-28T00:34:53;11.07;;;6.27;;
20014;SDS011;61787;42.022;23.078;2023-02-28T00:36:01;10.27;;;6.20;;
20014;SDS011;61787;42.022;23.078;2023-02-28T00:37:08;9.40;;;6.37;;
20014;SDS011;61787;42.022;23.078;2023-02-28T00:38:12;16.40;;;7.30;;
20014;SDS011;61787;42.022;23.078;2023-02-28T00:39:14;11.93;;;6.40;;
20014;SDS011;61787;42.022;23.078;2023-02-28T00:40:16;12.07;;;5.93;;
20014;SDS011;61787;42.022;23.078;2023-02-28T00:41:18;11.30;;;6.40;;
20014;SDS011;61787;42.022;23.078;2023-02-28T00:42:20;9.10;;;5.80;;
20014;SDS011;61787;42.022;23.078;2023-02-28T00:43:22;10.87;;;6.47;;
20014;SDS011;61787;42.022;23.078;2023-02-28T00:44:23;11.67;;;5.27;;
20014;SDS011;61787;42.022;23.078;2023-02-28T00:45:25;10.60;;;5.83;;
20014;SDS011;61787;42.022;23.078;2023-02-28T00:46:26;11.00;;;5.10;;
20014;SDS011;61787;42.022;23.078;2023-02-28T00:47:28;10.53;;;5.67;;
20014;SDS011;61787;42.022;23.078;2023-02-28T00:48:30;12.07;;;6.03;;
20014;SDS011;61787;42.022;23.078;2023-02-28T00:49:32;9.30;;;6.37;;
20014;SDS011;61787;42.022;23.078;2023-02-28T00:50:34;12.83;;;7.13;;
20014;SDS011;61787;42.022;23.078;2023-02-28T00:51:35;15.13;;;6.37;;
20014;SDS011;61787;42.022;23.078;2023-02-28T00:52:37;11.90;;;6.10;;
20014;SDS011;61787;42.022;23.078;2023-02-28T00:53:38;10.40;;;6.23;;
20014;SDS011;61787;42.022;23.078;2023-02-28T00:54:40;11.03;;;6.20;;
20014;SDS011;61787;42.022;23.078;2023-02-28T00:55:41;10.07;;;6.90;;
20014;SDS011;61787;42.022;23.078;2023-02-28T00:56:43;11.57;;;5.73;;
20014;SDS011;61787;42.022;23.078;2023-02-28T00:57:45;12.90;;;6.13;;
20014;SDS011;61787;42.022;23.078;2023-02-28T00:58:46;9.27;;;6.07;;
20014;SDS011;61787;42.022;23.078;2023-02-28T00:59:48;7.37;;;5.20;;
20014;SDS011;61787;42.022;23.078;2023-02-28T01:00:50;9.30;;;5.10;;
20014;SDS011;61787;42.022;23.078;2023-02-28T01:01:53;8.67;;;5.10;;
20014;SDS011;61787;42.022;23.078;2023-02-28T01:02:55;6.53;;;4.77;;
20014;SDS011;61787;42.022;23.078;2023-02-28T01:03:57;8.30;;;4.80;;
20014;SDS011;61787;42.022;23.078;2023-02-28T01:04:58;7.67;;;4.37;;
20014;SDS011;61787;42.022;23.078;2023-02-28T01:06:00;8.57;;;4.50;;
20014;SDS011;61787;42.022;23.078;2023-02-28T01:07:02;8.60;;;4.67;;
20014;SDS011;61787;42.022;23.078;2023-02-28T01:08:03;6.10;;;4.23;;
20014;SDS011;61787;42.022;23.078;2023-02-28T01:09:06;6.90;;;5.13;;
20014;SDS011;61787;42.022;23.078;2023-02-28T01:10:08;9.97;;;4.43;;
20014;SDS011;61787;42.022;23.078;2023-02-28T01:11:11;8.27;;;4.87;;
20014;SDS011;61787;42.022;23.078;2023-02-28T01:12:13;7.67;;;5.03;;
20014;SDS011;61787;42.022;23.078;2023-02-28T01:13:14;9.83;;;4.97;;
20014;SDS011;61787;42.022;23.078;2023-02-28T01:14:17;5.63;;;4.13;;
20014;SDS011;61787;42.022;23.078;2023-02-28T01:15:19;6.70;;;4.03;;
20014;SDS011;61787;42.022;23.078;2023-02-28T01:16:20;8.37;;;4.07;;
20014;SDS011;61787;42.022;23.078;2023-02-28T01:17:22;8.30;;;4.17;;
20014;SDS011;61787;42.022;23.078;2023-02-28T01:18:24;9.67;;;4.40;;
20014;SDS011;61787;42.022;23.078;2023-02-28T01:19:25;9.20;;;4.53;;
20014;SDS011;61787;42.022;23.078;2023-02-28T01:20:27;9.00;;;4.37;;
20014;SDS011;61787;42.022;23.078;2023-02-28T01:21:29;9.00;;;4.30;;
20014;SDS011;61787;42.022;23.078;2023-02-28T01:22:31;7.00;;;3.83;;
20014;SDS011;61787;42.022;23.078;2023-02-28T01:23:33;5.83;;;4.00;;
20014;SDS011;61787;42.022;23.078;2023-02-28T01:24:35;8.57;;;4.63;;
20014;SDS011;61787;42.022;23.078;2023-02-28T01:25:36;10.07;;;5.23;;
20014;SDS011;61787;42.022;23.078;2023-02-28T01:26:39;12.30;;;5.53;;
20014;SDS011;61787;42.022;23.078;2023-02-28T01:27:40;12.43;;;6.50;;
20014;SDS011;61787;42.022;23.078;2023-02-28T01:28:42;13.23;;;6.87;;
20014;SDS011;61787;42.022;23.078;2023-02-28T01:29:44;9.47;;;5.90;;
20014;SDS011;61787;42.022;23.078;2023-02-28T01:30:49;12.73;;;6.67;;
20014;SDS011;61787;42.022;23.078;2023-02-28T01:31:51;10.07;;;6.80;;
20014;SDS011;61787;42.022;23.078;2023-02-28T01:32:53;12.53;;;5.50;;
20014;SDS011;61787;42.022;23.078;2023-02-28T01:33:55;8.90;;;4.83;;
20014;SDS011;61787;42.022;23.078;2023-02-28T01:34:56;9.63;;;4.30;;
20014;SDS011;61787;42.022;23.078;2023-02-28T01:36:01;9.43;;;4.80;;
20014;SDS011;61787;42.022;23.078;2023-02-28T01:37:05;8.77;;;4.37;;
20014;SDS011;61787;42.022;23.078;2023-02-28T01:38:06;13.37;;;5.20;;
20014;SDS011;61787;42.022;23.078;2023-02-28T01:39:22;20.87;;;5.50;;
20014;SDS011;61787;42.022;23.078;2023-02-28T01:40:23;28.93;;;5.80;;
20014;SDS011;61787;42.022;23.078;2023-02-28T01:41:26;36.93;;;6.50;;
20014;SDS011;61787;42.022;23.078;2023-02-28T01:42:30;29.80;;;6.27;;
20014;SDS011;61787;42.022;23.078;2023-02-28T01:43:51;61.33;;;8.07;;
20014;SDS011;61787;42.022;23.078;2023-02-28T01:46:27;34.93;;;7.17;;
20014;SDS011;61787;42.022;23.078;2023-02-28T01:47:31;26.57;;;6.90;;
20014;SDS011;61787;42.022;23.078;2023-02-28T01:48:38;43.33;;;8.03;;
20014;SDS011;61787;42.022;23.078;2023-02-28T01:49:45;27.67;;;7.07;;
20014;SDS011;61787;42.022;23.078;2023-02-28T01:50:48;41.57;;;8.50;;
20014;SDS011;61787;42.022;23.078;2023-02-28T01:51:51;31.27;;;7.80;;
20014;SDS011;61787;42.022;23.078;2023-02-28T01:52:58;23.73;;;7.20;;
20014;SDS011;61787;42.022;23.078;2023-02-28T01:54:03;20.07;;;7.17;;
20014;SDS011;61787;42.022;23.078;2023-02-28T01:55:14;16.40;;;6.30;;
20014;SDS011;61787;42.022;23.078;2023-02-28T01:56:20;10.70;;;6.17;;
20014;SDS011;61787;42.022;23.078;2023-02-28T01:57:27;10.03;;;6.73;;
20014;SDS011;61787;42.022;23.078;2023-02-28T01:58:38;10.40;;;6.37;;
20014;SDS011;61787;42.022;23.078;2023-02-28T01:59:59;10.77;;;6.67;;
20014;SDS011;61787;42.022;23.078;2023-02-28T02:01:05;11.87;;;6.77;;
20014;SDS011;61787;42.022;23.078;2023-02-28T02:02:07;11.97;;;6.53;;
20014;SDS011;61787;42.022;23.078;2023-02-28T02:03:10;12.40;;;6.67;;
20014;SDS011;61787;42.022;23.078;2023-02-28T02:04:17;11.40;;;6.17;;
20014;SDS011;61787;42.022;23.078;2023-02-28T02:05:21;10.43;;;6.13;;
20014;SDS011;61787;42.022;23.078;2023-02-28T02:06:25;11.17;;;6.57;;
20014;SDS011;61787;42.022;23.078;2023-02-28T02:07:50;16.97;;;7.67;;
20014;SDS011;61787;42.022;23.078;2023-02-28T02:08:55;16.27;;;7.43;;
20014;SDS011;61787;42.022;23.078;2023-02-28T02:10:00;13.27;;;6.90;;
20014;SDS011;61787;42.022;23.078;2023-02-28T02:11:23;11.33;;;6.53;;
20014;SDS011;61787;42.022;23.078;2023-02-28T02:13:58;13.67;;;7.13;;
20014;SDS011;61787;42.022;23.078;2023-02-28T02:17:48;12.30;;;7.50;;
20014;SDS011;61787;42.022;23.078;2023-02-28T02:21:24;13.77;;;7.00;;
20014;SDS011;61787;42.022;23.078;2023-02-28T02:22:43;8.33;;;6.90;;
20014;SDS011;61787;42.022;23.078;2023-02-28T02:31:15;12.93;;;7.83;;
20014;SDS011;61787;42.022;23.078;2023-02-28T02:34:15;14.33;;;7.90;;
20014;SDS011;61787;42.022;23.078;2023-02-28T02:36:48;10.77;;;8.50;;
20014;SDS011;61787;42.022;23.078;2023-02-28T02:42:30;12.17;;;8.33;;
20014;SDS011;61787;42.022;23.078;2023-02-28T02:43:44;14.23;;;9.30;;
20014;SDS011;61787;42.022;23.078;2023-02-28T02:44:58;13.97;;;8.70;;
20014;SDS011;61787;42.022;23.078;2023-02-28T02:46:05;13.40;;;8.03;;
20014;SDS011;61787;42.022;23.078;2023-02-28T02:47:19;14.00;;;8.10;;
20014;SDS011;61787;42.022;23.078;2023-02-28T02:48:27;12.93;;;8.37;;
20014;SDS011;61787;42.022;23.078;2023-02-28T02:49:35;16.00;;;8.40;;
20014;SDS011;61787;42.022;23.078;2023-02-28T02:50:41;13.87;;;8.13;;
20014;SDS011;61787;42.022;23.078;2023-02-28T02:51:46;16.50;;;7.93;;
20014;SDS011;61787;42.022;23.078;2023-02-28T02:52:51;13.47;;;7.27;;
20014;SDS011;61787;42.022;23.078;2023-02-28T02:53:57;13.83;;;7.73;;
20014;SDS011;61787;42.022;23.078;2023-02-28T02:55:06;14.73;;;8.40;;
20014;SDS011;61787;42.022;23.078;2023-02-28T02:56:13;14.53;;;7.77;;
20014;SDS011;61787;42.022;23.078;2023-02-28T02:57:21;12.80;;;8.50;;
20014;SDS011;61787;42.022;23.078;2023-02-28T02:58:28;13.60;;;8.17;;
20014;SDS011;61787;42.022;23.078;2023-02-28T02:59:33;12.23;;;7.87;;
20014;SDS011;61787;42.022;23.078;2023-02-28T03:00:38;11.87;;;7.57;;
20014;SDS011;61787;42.022;23.078;2023-02-28T03:01:44;14.53;;;7.87;;
20014;SDS011;61787;42.022;23.078;2023-02-28T03:02:46;16.17;;;7.87;;
20014;SDS011;61787;42.022;23.078;2023-02-28T03:03:50;13.23;;;7.53;;
20014;SDS011;61787;42.022;23.078;2023-02-28T03:04:52;13.13;;;8.07;;
20014;SDS011;61787;42.022;23.078;2023-02-28T03:06:02;13.97;;;6.47;;
20014;SDS011;61787;42.022;23.078;2023-02-28T03:07:04;10.67;;;7.00;;
20014;SDS011;61787;42.022;23.078;2023-02-28T03:08:06;11.20;;;6.60;;
20014;SDS011;61787;42.022;23.078;2023-02-28T03:09:07;12.90;;;7.90;;
20014;SDS011;61787;42.022;23.078;2023-02-28T03:11:29;14.20;;;7.67;;
20014;SDS011;61787;42.022;23.078;2023-02-28T03:12:41;14.70;;;8.43;;
20014;SDS011;61787;42.022;23.078;2023-02-28T03:15:24;14.63;;;8.20;;
20014;SDS011;61787;42.022;23.078;2023-02-28T03:18:03;37.37;;;11.73;;
20014;SDS011;61787;42.022;23.078;2023-02-28T03:22:32;139.93;;;17.53;;
20014;SDS011;61787;42.022;23.078;2023-02-28T03:23:43;20.23;;;12.83;;
20014;SDS011;61787;42.022;23.078;2023-02-28T03:26:19;39.17;;;13.77;;
20014;SDS011;61787;42.022;23.078;2023-02-28T03:27:30;44.70;;;14.43;;
20014;SDS011;61787;42.022;23.078;2023-02-28T03:29:46;17.80;;;12.37;;
20014;SDS011;61787;42.022;23.078;2023-02-28T03:30:58;18.00;;;9.73;;
20014;SDS011;61787;42.022;23.078;2023-02-28T03:32:16;16.87;;;9.70;;
20014;SDS011;61787;42.022;23.078;2023-02-28T03:33:32;13.77;;;9.60;;
20014;SDS011;61787;42.022;23.078;2023-02-28T03:34:41;15.73;;;9.43;;
20014;SDS011;61787;42.022;23.078;2023-02-28T03:35:51;17.73;;;9.90;;
20014;SDS011;61787;42.022;23.078;2023-02-28T03:37:02;16.53;;;9.60;;
20014;SDS011;61787;42.022;23.078;2023-02-28T03:38:11;14.77;;;9.03;;
20014;SDS011;61787;42.022;23.078;2023-02-28T03:39:24;14.50;;;9.37;;
20014;SDS011;61787;42.022;23.078;2023-02-28T03:40:30;15.40;;;9.43;;
20014;SDS011;61787;42.022;23.078;2023-02-28T03:41:37;17.03;;;10.27;;
20014;SDS011;61787;42.022;23.078;2023-02-28T03:42:44;14.37;;;9.57;;
20014;SDS011;61787;42.022;23.078;2023-02-28T03:43:50;15.93;;;9.33;;
20014;SDS011;61787;42.022;23.078;2023-02-28T03:44:59;12.37;;;9.03;;
20014;SDS011;61787;42.022;23.078;2023-02-28T03:46:05;14.50;;;9.27;;
20014;SDS011;61787;42.022;23.078;2023-02-28T03:47:14;16.47;;;9.50;;
20014;SDS011;61787;42.022;23.078;2023-02-28T03:48:28;14.93;;;8.87;;
20014;SDS011;61787;42.022;23.078;2023-02-28T03:49:40;16.27;;;9.67;;
20014;SDS011;61787;42.022;23.078;2023-02-28T03:50:47;16.43;;;10.37;;
20014;SDS011;61787;42.022;23.078;2023-02-28T03:51:53;19.97;;;11.03;;
20014;SDS011;61787;42.022;23.078;2023-02-28T03:53:04;16.87;;;10.70;;
20014;SDS011;61787;42.022;23.078;2023-02-28T03:54:12;20.07;;;11.07;;
20014;SDS011;61787;42.022;23.078;2023-02-28T03:55:19;14.97;;;10.57;;
20014;SDS011;61787;42.022;23.078;2023-02-28T03:56:24;19.80;;;11.43;;
20014;SDS011;61787;42.022;23.078;2023-02-28T03:57:51;19.03;;;10.67;;
20014;SDS011;61787;42.022;23.078;2023-02-28T04:00:06;14.57;;;10.20;;
20014;SDS011;61787;42.022;23.078;2023-02-28T04:01:31;17.83;;;11.27;;
20014;SDS011;61787;42.022;23.078;2023-02-28T04:02:36;16.73;;;10.43;;
20014;SDS011;61787;42.022;23.078;2023-02-28T04:03:38;16.40;;;10.93;;
20014;SDS011;61787;42.022;23.078;2023-02-28T04:04:40;16.57;;;10.70;;
20014;SDS011;61787;42.022;23.078;2023-02-28T04:05:55;17.63;;;11.37;;
20014;SDS011;61787;42.022;23.078;2023-02-28T04:07:03;19.33;;;10.53;;
20014;SDS011;61787;42.022;23.078;2023-02-28T04:08:07;17.93;;;10.67;;
20014;SDS011;61787;42.022;23.078;2023-02-28T04:09:10;15.63;;;10.10;;
20014;SDS011;61787;42.022;23.078;2023-02-28T04:10:12;13.07;;;9.67;;
20014;SDS011;61787;42.022;23.078;2023-02-28T04:12:15;18.53;;;11.40;;
20014;SDS011;61787;42.022;23.078;2023-02-28T04:13:17;16.80;;;10.83;;
20014;SDS011;61787;42.022;23.078;2023-02-28T04:14:18;16.53;;;9.77;;
20014;SDS011;61787;42.022;23.078;2023-02-28T04:15:20;20.97;;;10.93;;
20014;SDS011;61787;42.022;23.078;2023-02-28T04:16:24;17.30;;;11.03;;
20014;SDS011;61787;42.022;23.078;2023-02-28T04:17:35;16.53;;;11.10;;
20014;SDS011;61787;42.022;23.078;2023-02-28T04:18:40;19.43;;;11.87;;
20014;SDS011;61787;42.022;23.078;2023-02-28T04:19:44;15.97;;;11.00;;
20014;SDS011;61787;42.022;23.078;2023-02-28T04:20:45;17.37;;;10.83;;
20014;SDS011;61787;42.022;23.078;2023-02-28T04:21:48;17.60;;;11.30;;
20014;SDS011;61787;42.022;23.078;2023-02-28T04:22:51;16.10;;;10.77;;
20014;SDS011;61787;42.022;23.078;2023-02-28T04:23:53;21.27;;;11.97;;
20014;SDS011;61787;42.022;23.078;2023-02-28T04:24:54;16.90;;;11.00;;
20014;SDS011;61787;42.022;23.078;2023-02-28T04:25:56;19.10;;;11.37;;
20014;SDS011;61787;42.022;23.078;2023-02-28T04:26:58;18.60;;;10.07;;
20014;SDS011;61787;42.022;23.078;2023-02-28T04:27:59;20.83;;;10.87;;
20014;SDS011;61787;42.022;23.078;2023-02-28T04:29:02;20.67;;;10.90;;
20014;SDS011;61787;42.022;23.078;2023-02-28T04:30:05;18.43;;;10.70;;
20014;SDS011;61787;42.022;23.078;2023-02-28T04:31:08;17.33;;;9.87;;
20014;SDS011;61787;42.022;23.078;2023-02-28T04:32:10;19.70;;;10.80;;
20014;SDS011;61787;42.022;23.078;2023-02-28T04:33:12;19.20;;;10.73;;
20014;SDS011;61787;42.022;23.078;2023-02-28T04:34:14;16.83;;;9.43;;
20014;SDS011;61787;42.022;23.078;2023-02-28T04:35:17;15.80;;;9.30;;
20014;SDS011;61787;42.022;23.078;2023-02-28T04:36:18;18.30;;;10.20;;
20014;SDS011;61787;42.022;23.078;2023-02-28T04:37:20;19.27;;;9.87;;
20014;SDS011;61787;42.022;23.078;2023-02-28T04:38:21;17.90;;;9.77;;
20014;SDS011;61787;42.022;23.078;2023-02-28T04:39:23;17.53;;;10.03;;
20014;SDS011;61787;42.022;23.078;2023-02-28T04:40:26;20.93;;;10.73;;
20014;SDS011;61787;42.022;23.078;2023-02-28T04:41:28;15.07;;;10.33;;
20014;SDS011;61787;42.022;23.078;2023-02-28T04:42:32;21.83;;;11.27;;
20014;SDS011;61787;42.022;23.078;2023-02-28T04:43:36;18.47;;;10.90;;
20014;SDS011;61787;42.022;23.078;2023-02-28T04:44:38;18.87;;;10.50;;
20014;SDS011;61787;42.022;23.078;2023-02-28T04:45:40;20.03;;;11.30;;
20014;SDS011;61787;42.022;23.078;2023-02-28T04:46:41;22.57;;;12.20;;
20014;SDS011;61787;42.022;23.078;2023-02-28T04:47:43;21.83;;;12.57;;
20014;SDS011;61787;42.022;23.078;2023-02-28T04:48:45;20.60;;;11.50;;
20014;SDS011;61787;42.022;23.078;2023-02-28T04:49:46;19.63;;;11.67;;
20014;SDS011;61787;42.022;23.078;2023-02-28T04:50:48;19.33;;;12.30;;
20014;SDS011;61787;42.022;23.078;2023-02-28T04:51:50;16.63;;;11.77;;
20014;SDS011;61787;42.022;23.078;2023-02-28T04:52:51;20.30;;;12.17;;
20014;SDS011;61787;42.022;23.078;2023-02-28T04:53:53;19.73;;;12.07;;
20014;SDS011;61787;42.022;23.078;2023-02-28T04:54:55;22.07;;;13.33;;
20014;SDS011;61787;42.022;23.078;2023-02-28T04:55:57;23.97;;;12.77;;
20014;SDS011;61787;42.022;23.078;2023-02-28T04:56:58;21.33;;;12.97;;
20014;SDS011;61787;42.022;23.078;2023-02-28T04:58:00;22.83;;;13.57;;
20014;SDS011;61787;42.022;23.078;2023-02-28T04:59:02;23.83;;;13.13;;
20014;SDS011;61787;42.022;23.078;2023-02-28T05:00:03;26.20;;;13.37;;
20014;SDS011;61787;42.022;23.078;2023-02-28T05:02:38;22.33;;;12.50;;
20014;SDS011;61787;42.022;23.078;2023-02-28T05:03:40;27.67;;;13.37;;
20014;SDS011;61787;42.022;23.078;2023-02-28T05:04:43;23.03;;;13.30;;
20014;SDS011;61787;42.022;23.078;2023-02-28T05:05:44;23.90;;;14.20;;
20014;SDS011;61787;42.022;23.078;2023-02-28T05:06:46;22.40;;;12.87;;
20014;SDS011;61787;42.022;23.078;2023-02-28T05:07:47;27.30;;;14.93;;
20014;SDS011;61787;42.022;23.078;2023-02-28T05:08:49;21.47;;;13.00;;
20014;SDS011;61787;42.022;23.078;2023-02-28T05:09:51;23.87;;;13.83;;
20014;SDS011;61787;42.022;23.078;2023-02-28T05:10:52;22.63;;;13.57;;
20014;SDS011;61787;42.022;23.078;2023-02-28T05:11:54;21.20;;;12.23;;
20014;SDS011;61787;42.022;23.078;2023-02-28T05:12:57;19.80;;;11.70;;
20014;SDS011;61787;42.022;23.078;2023-02-28T05:13:58;17.03;;;11.07;;
20014;SDS011;61787;42.022;23.078;2023-02-28T05:15:00;18.30;;;11.77;;
20014;SDS011;61787;42.022;23.078;2023-02-28T05:16:03;19.90;;;12.37;;
20014;SDS011;61787;42.022;23.078;2023-02-28T05:17:05;21.50;;;12.40;;
20014;SDS011;61787;42.022;23.078;2023-02-28T05:18:07;22.03;;;13.63;;
20014;SDS011;61787;42.022;23.078;2023-02-28T05:19:09;20.27;;;12.27;;
20014;SDS011;61787;42.022;23.078;2023-02-28T05:20:11;22.37;;;12.10;;
20014;SDS011;61787;42.022;23.078;2023-02-28T05:21:24;21.63;;;12.23;;
20014;SDS011;61787;42.022;23.078;2023-02-28T05:22:26;19.23;;;12.17;;
20014;SDS011;61787;42.022;23.078;2023-02-28T05:23:27;20.87;;;11.80;;
20014;SDS011;61787;42.022;23.078;2023-02-28T05:24:29;21.73;;;12.30;;
20014;SDS011;61787;42.022;23.078;2023-02-28T05:25:31;20.20;;;12.07;;
20014;SDS011;61787;42.022;23.078;2023-02-28T05:26:36;18.60;;;12.17;;
20014;SDS011;61787;42.022;23.078;2023-02-28T05:27:39;26.83;;;12.93;;
20014;SDS011;61787;42.022;23.078;2023-02-28T05:28:40;21.30;;;11.63;;
20014;SDS011;61787;42.022;23.078;2023-02-28T05:29:42;21.10;;;11.90;;
20014;SDS011;61787;42.022;23.078;2023-02-28T05:30:46;18.20;;;10.53;;
20014;SDS011;61787;42.022;23.078;2023-02-28T05:31:48;17.73;;;10.97;;
20014;SDS011;61787;42.022;23.078;2023-02-28T05:32:50;19.93;;;10.87;;
20014;SDS011;61787;42.022;23.078;2023-02-28T05:33:52;17.67;;;10.27;;
20014;SDS011;61787;42.022;23.078;2023-02-28T05:34:54;17.40;;;10.13;;
20014;SDS011;61787;42.022;23.078;2023-02-28T05:35:56;17.60;;;10.33;;
20014;SDS011;61787;42.022;23.078;2023-02-28T05:36:57;18.83;;;10.17;;
20014;SDS011;61787;42.022;23.078;2023-02-28T05:37:59;22.53;;;10.27;;
20014;SDS011;61787;42.022;23.078;2023-02-28T05:39:00;17.93;;;9.27;;
20014;SDS011;61787;42.022;23.078;2023-02-28T05:40:02;20.97;;;10.10;;
20014;SDS011;61787;42.022;23.078;2023-02-28T05:41:07;22.53;;;9.17;;
20014;SDS011;61787;42.022;23.078;2023-02-28T05:42:10;17.33;;;9.83;;
20014;SDS011;61787;42.022;23.078;2023-02-28T05:43:12;19.70;;;10.50;;
20014;SDS011;61787;42.022;23.078;2023-02-28T05:44:13;17.80;;;9.17;;
20014;SDS011;61787;42.022;23.078;2023-02-28T05:45:16;16.00;;;9.07;;
20014;SDS011;61787;42.022;23.078;2023-02-28T05:46:18;20.20;;;9.17;;
20014;SDS011;61787;42.022;23.078;2023-02-28T05:47:19;16.13;;;9.57;;
20014;SDS011;61787;42.022;23.078;2023-02-28T05:48:21;19.87;;;9.43;;
20014;SDS011;61787;42.022;23.078;2023-02-28T05:49:23;16.77;;;9.83;;
20014;SDS011;61787;42.022;23.078;2023-02-28T05:50:24;21.50;;;9.63;;
20014;SDS011;61787;42.022;23.078;2023-02-28T05:51:26;23.80;;;9.47;;
20014;SDS011;61787;42.022;23.078;2023-02-28T05:52:28;15.60;;;9.07;;
20014;SDS011;61787;42.022;23.078;2023-02-28T05:53:33;18.60;;;9.87;;
20014;SDS011;61787;42.022;23.078;2023-02-28T05:54:34;17.90;;;9.53;;
20014;SDS011;61787;42.022;23.078;2023-02-28T05:55:36;17.30;;;9.03;;
20014;SDS011;61787;42.022;23.078;2023-02-28T05:56:38;16.23;;;9.23;;
20014;SDS011;61787;42.022;23.078;2023-02-28T05:57:41;17.23;;;9.00;;
20014;SDS011;61787;42.022;23.078;2023-02-28T05:58:44;14.80;;;8.60;;
20014;SDS011;61787;42.022;23.078;2023-02-28T05:59:45;15.97;;;8.57;;
20014;SDS011;61787;42.022;23.078;2023-02-28T06:00:47;17.33;;;9.13;;
20014;SDS011;61787;42.022;23.078;2023-02-28T06:01:49;16.17;;;8.83;;
20014;SDS011;61787;42.022;23.078;2023-02-28T06:02:51;15.57;;;8.80;;
20014;SDS011;61787;42.022;23.078;2023-02-28T06:03:58;16.40;;;8.53;;
20014;SDS011;61787;42.022;23.078;2023-02-28T06:05:01;15.80;;;8.43;;
20014;SDS011;61787;42.022;23.078;2023-02-28T06:06:02;17.23;;;8.53;;
20014;SDS011;61787;42.022;23.078;2023-02-28T06:07:04;21.87;;;8.90;;
20014;SDS011;61787;42.022;23.078;2023-02-28T06:08:06;15.27;;;7.97;;
20014;SDS011;61787;42.022;23.078;2023-02-28T06:09:08;20.07;;;8.50;;
20014;SDS011;61787;42.022;23.078;2023-02-28T06:10:10;15.13;;;8.30;;
20014;SDS011;61787;42.022;23.078;2023-02-28T06:11:13;17.63;;;8.43;;
20014;SDS011;61787;42.022;23.078;2023-02-28T06:12:15;16.10;;;8.97;;
20014;SDS011;61787;42.022;23.078;2023-02-28T06:13:16;16.30;;;7.77;;
20014;SDS011;61787;42.022;23.078;2023-02-28T06:14:19;21.67;;;8.80;;
20014;SDS011;61787;42.022;23.078;2023-02-28T06:15:21;16.40;;;8.20;;
20014;SDS011;61787;42.022;23.078;2023-02-28T06:16:23;18.63;;;8.57;;
20014;SDS011;61787;42.022;23.078;2023-02-28T06:17:25;20.47;;;8.40;;
20014;SDS011;61787;42.022;23.078;2023-02-28T06:18:27;16.73;;;8.70;;
20014;SDS011;61787;42.022;23.078;2023-02-28T06:19:29;15.77;;;8.40;;
20014;SDS011;61787;42.022;23.078;2023-02-28T06:20:31;17.03;;;9.53;;
20014;SDS011;61787;42.022;23.078;2023-02-28T06:21:33;18.20;;;9.83;;
20014;SDS011;61787;42.022;23.078;2023-02-28T06:22:35;19.77;;;9.53;;
20014;SDS011;61787;42.022;23.078;2023-02-28T06:23:37;15.83;;;9.50;;
20014;SDS011;61787;42.022;23.078;2023-02-28T06:24:38;21.20;;;10.57;;
20014;SDS011;61787;42.022;23.078;2023-02-28T06:25:40;20.73;;;8.90;;
20014;SDS011;61787;42.022;23.078;2023-02-28T06:26:46;19.17;;;9.43;;
20014;SDS011;61787;42.022;23.078;2023-02-28T06:27:48;26.20;;;9.80;;
20014;SDS011;61787;42.022;23.078;2023-02-28T06:28:50;17.17;;;8.97;;
20014;SDS011;61787;42.022;23.078;2023-02-28T06:29:55;20.07;;;9.30;;
20014;SDS011;61787;42.022;23.078;2023-02-28T06:30:57;16.70;;;9.03;;
20014;SDS011;61787;42.022;23.078;2023-02-28T06:31:58;17.23;;;9.70;;
20014;SDS011;61787;42.022;23.078;2023-02-28T06:33:00;15.00;;;9.17;;
20014;SDS011;61787;42.022;23.078;2023-02-28T06:34:02;18.83;;;8.10;;
20014;SDS011;61787;42.022;23.078;2023-02-28T06:35:03;17.57;;;9.80;;
20014;SDS011;61787;42.022;23.078;2023-02-28T06:36:06;14.73;;;8.20;;
20014;SDS011;61787;42.022;23.078;2023-02-28T06:37:08;15.27;;;8.20;;
20014;SDS011;61787;42.022;23.078;2023-02-28T06:38:10;16.67;;;8.90;;
20014;SDS011;61787;42.022;23.078;2023-02-28T06:39:12;17.20;;;8.77;;
20014;SDS011;61787;42.022;23.078;2023-02-28T06:40:13;22.07;;;9.10;;
20014;SDS011;61787;42.022;23.078;2023-02-28T06:41:15;23.93;;;9.00;;
20014;SDS011;61787;42.022;23.078;2023-02-28T06:42:17;15.23;;;8.30;;
20014;SDS011;61787;42.022;23.078;2023-02-28T06:43:19;17.40;;;8.90;;
20014;SDS011;61787;42.022;23.078;2023-02-28T06:44:20;15.63;;;7.97;;
20014;SDS011;61787;42.022;23.078;2023-02-28T06:45:23;18.67;;;8.63;;
20014;SDS011;61787;42.022;23.078;2023-02-28T06:46:27;20.30;;;9.20;;
20014;SDS011;61787;42.022;23.078;2023-02-28T06:47:30;17.77;;;9.13;;
20014;SDS011;61787;42.022;23.078;2023-02-28T06:48:32;17.07;;;8.87;;
20014;SDS011;61787;42.022;23.078;2023-02-28T06:49:36;14.47;;;8.83;;
20014;SDS011;61787;42.022;23.078;2023-02-28T06:50:38;18.87;;;9.03;;
20014;SDS011;61787;42.022;23.078;2023-02-28T06:51:42;15.53;;;8.47;;